Decoded Metar for KUNU (JUNEAU in WI, USA) (IATA:UNU) | Meteo·Mobile Aviation Weather
aviador You're here:

KUNU Decoded Metar

JUNEAU in WI, USA
Report Time2018-12-10 15:35:00
UTC Time2018-12-10 15:51:00
Flight Rules mvfr MVFR
Wind210° at 05 kt
W.Decomp.*RWY 20: 4.9 kt HW 1.0 kt RCW
RWY 26: 3.3 kt HW 3.8 kt LCW
W.Rank210° ranks 3
Current wind is below 210° avg. (8.0)
Visibility6437 m
Phenomena:Mist
Clouds:N/A
Expected CloudBase > 400 ft AGL from Temp-Dew spread
CeilingNone
Temp-6°C (ISA -19)
Dew Point-7°C (93% RH)
AAT-10.6°C
QNH1023 hPa
Density Alt-1,719 ft
Elevation935 ft
Report Wrong Elevation
Raw Report
KUNU 101535Z AUTO 21005KT 4SM BR CLR M06/M07 A3022 RMK AO2
T10601066 TSNO=

Extra information for KUNU:More info

Metar Taf Metar & Taf Last 4 Metars F.Rules Stats Wind Profile Meteogram Temp Stats Airport Information Weather charts Add Link Nearby VenuesMetar ALERT Operation Metar Decoded Social comments

AIRNAV info for KUNU